sensor_id;sensor_type;location;lat;lon;timestamp;pressure;altitude;pressure_sealevel;temperature;humidity
72896;BME280;61036;53.224;6.554;2023-05-31T00:01:59;102805.75;;;15.42;100.00
72896;BME280;61036;53.224;6.554;2023-05-31T00:04:24;102803.31;;;15.37;100.00
72896;BME280;61036;53.224;6.554;2023-05-31T00:06:50;102802.91;;;15.43;100.00
72896;BME280;61036;53.224;6.554;2023-05-31T00:09:15;102809.72;;;15.50;100.00
72896;BME280;61036;53.224;6.554;2023-05-31T00:11:41;102801.78;;;15.33;100.00
72896;BME280;61036;53.224;6.554;2023-05-31T00:14:07;102798.66;;;15.25;100.00
72896;BME280;61036;53.224;6.554;2023-05-31T00:16:32;102799.94;;;15.19;100.00
72896;BME280;61036;53.224;6.554;2023-05-31T00:18:58;102792.63;;;15.48;100.00
72896;BME280;61036;53.224;6.554;2023-05-31T00:21:23;102797.94;;;15.64;100.00
72896;BME280;61036;53.224;6.554;2023-05-31T00:23:49;102801.38;;;15.68;100.00
72896;BME280;61036;53.224;6.554;2023-05-31T00:26:14;102793.78;;;15.59;100.00
72896;BME280;61036;53.224;6.554;2023-05-31T00:28:42;102791.47;;;15.52;100.00
72896;BME280;61036;53.224;6.554;2023-05-31T00:31:07;102783.13;;;15.55;100.00
72896;BME280;61036;53.224;6.554;2023-05-31T00:33:33;102782.13;;;15.57;100.00
72896;BME280;61036;53.224;6.554;2023-05-31T00:35:58;102779.63;;;15.68;100.00
72896;BME280;61036;53.224;6.554;2023-05-31T00:38:24;102778.72;;;15.67;100.00
72896;BME280;61036;53.224;6.554;2023-05-31T00:40:49;102784.66;;;15.45;100.00
72896;BME280;61036;53.224;6.554;2023-05-31T00:43:15;102782.63;;;15.49;100.00
72896;BME280;61036;53.224;6.554;2023-05-31T00:45:40;102782.53;;;15.36;100.00
72896;BME280;61036;53.224;6.554;2023-05-31T00:48:06;102780.50;;;15.40;100.00
72896;BME280;61036;53.224;6.554;2023-05-31T00:50:32;102783.63;;;15.05;100.00
72896;BME280;61036;53.224;6.554;2023-05-31T00:52:59;102780.81;;;15.49;100.00
72896;BME280;61036;53.224;6.554;2023-05-31T00:55:26;102783.53;;;15.49;100.00
72896;BME280;61036;53.224;6.554;2023-05-31T00:57:52;102789.53;;;15.40;100.00
72896;BME280;61036;53.224;6.554;2023-05-31T01:00:18;102786.34;;;15.33;100.00
72896;BME280;61036;53.224;6.554;2023-05-31T01:02:44;102798.19;;;15.18;100.00
72896;BME280;61036;53.224;6.554;2023-05-31T01:05:10;102794.19;;;15.52;100.00
72896;BME280;61036;53.224;6.554;2023-05-31T01:07:36;102792.94;;;15.15;100.00
72896;BME280;61036;53.224;6.554;2023-05-31T01:10:03;102793.28;;;15.52;100.00
72896;BME280;61036;53.224;6.554;2023-05-31T01:15:34;102796.50;;;16.00;100.00
72896;BME280;61036;53.224;6.554;2023-05-31T01:18:17;102791.06;;;15.59;100.00
72896;BME280;61036;53.224;6.554;2023-05-31T01:20:51;102790.56;;;15.66;100.00
72896;BME280;61036;53.224;6.554;2023-05-31T01:23:54;102784.19;;;15.94;100.00
72896;BME280;61036;53.224;6.554;2023-05-31T01:26:47;102791.19;;;15.98;100.00
72896;BME280;61036;53.224;6.554;2023-05-31T01:29:18;102782.25;;;15.96;100.00
72896;BME280;61036;53.224;6.554;2023-05-31T01:31:46;102786.72;;;15.70;100.00
72896;BME280;61036;53.224;6.554;2023-05-31T01:34:13;102786.81;;;15.69;100.00
72896;BME280;61036;53.224;6.554;2023-05-31T01:36:39;102789.16;;;15.46;100.00
72896;BME280;61036;53.224;6.554;2023-05-31T01:39:05;102783.66;;;15.61;100.00
72896;BME280;61036;53.224;6.554;2023-05-31T01:41:40;102784.91;;;15.84;100.00
72896;BME280;61036;53.224;6.554;2023-05-31T01:44:08;102792.94;;;15.44;100.00
72896;BME280;61036;53.224;6.554;2023-05-31T01:46:34;102797.91;;;15.23;100.00
72896;BME280;61036;53.224;6.554;2023-05-31T01:49:01;102803.09;;;15.54;100.00
72896;BME280;61036;53.224;6.554;2023-05-31T01:51:27;102805.94;;;15.53;100.00
72896;BME280;61036;53.224;6.554;2023-05-31T01:53:57;102803.69;;;15.31;100.00
72896;BME280;61036;53.224;6.554;2023-05-31T01:56:23;102802.03;;;15.57;100.00
72896;BME280;61036;53.224;6.554;2023-05-31T01:58:51;102801.56;;;15.36;100.00
72896;BME280;61036;53.224;6.554;2023-05-31T02:01:19;102803.09;;;15.54;100.00
72896;BME280;61036;53.224;6.554;2023-05-31T02:03:45;102806.53;;;15.15;100.00
72896;BME280;61036;53.224;6.554;2023-05-31T02:06:12;102805.38;;;15.05;100.00
72896;BME280;61036;53.224;6.554;2023-05-31T02:08:39;102802.56;;;15.21;100.00
72896;BME280;61036;53.224;6.554;2023-05-31T02:11:06;102801.78;;;15.33;100.00
72896;BME280;61036;53.224;6.554;2023-05-31T02:13:33;102805.00;;;15.25;100.00
72896;BME280;61036;53.224;6.554;2023-05-31T02:15:59;102810.69;;;15.06;100.00
72896;BME280;61036;53.224;6.554;2023-05-31T02:18:25;102801.28;;;15.12;100.00
72896;BME280;61036;53.224;6.554;2023-05-31T02:20:54;102796.44;;;15.03;100.00
72896;BME280;61036;53.224;6.554;2023-05-31T02:23:20;102800.13;;;15.16;100.00
72896;BME280;61036;53.224;6.554;2023-05-31T02:25:48;102802.56;;;15.21;100.00
72896;BME280;61036;53.224;6.554;2023-05-31T02:28:14;102804.22;;;15.23;100.00
72896;BME280;61036;53.224;6.554;2023-05-31T02:30:40;102803.97;;;14.69;100.00
72896;BME280;61036;53.224;6.554;2023-05-31T02:33:08;102801.22;;;14.55;100.00
72896;BME280;61036;53.224;6.554;2023-05-31T02:35:34;102798.16;;;14.75;100.00
72896;BME280;61036;53.224;6.554;2023-05-31T02:38:00;102804.94;;;14.82;100.00
72896;BME280;61036;53.224;6.554;2023-05-31T02:40:26;102808.91;;;14.62;100.00
72896;BME280;61036;53.224;6.554;2023-05-31T02:42:52;102805.63;;;14.86;100.00
72896;BME280;61036;53.224;6.554;2023-05-31T02:45:18;102809.56;;;15.11;100.00
72896;BME280;61036;53.224;6.554;2023-05-31T02:47:44;102813.22;;;15.24;100.00
72896;BME280;61036;53.224;6.554;2023-05-31T02:50:10;102810.53;;;14.65;100.00
72896;BME280;61036;53.224;6.554;2023-05-31T02:52:45;102797.00;;;14.79;100.00
72896;BME280;61036;53.224;6.554;2023-05-31T02:55:13;102808.06;;;14.30;100.00
72896;BME280;61036;53.224;6.554;2023-05-31T02:58:01;102799.50;;;14.68;100.00
72896;BME280;61036;53.224;6.554;2023-05-31T03:00:29;102805.63;;;14.72;100.00
72896;BME280;61036;53.224;6.554;2023-05-31T03:02:54;102795.47;;;14.90;100.00
72896;BME280;61036;53.224;6.554;2023-05-31T03:05:46;102796.13;;;14.79;100.00
72896;BME280;61036;53.224;6.554;2023-05-31T03:08:11;102802.00;;;14.57;100.00
72896;BME280;61036;53.224;6.554;2023-05-31T03:10:39;102805.25;;;14.78;100.00
72896;BME280;61036;53.224;6.554;2023-05-31T03:13:05;102807.13;;;14.61;100.00
72896;BME280;61036;53.224;6.554;2023-05-31T03:15:31;102808.78;;;14.64;100.00
72896;BME280;61036;53.224;6.554;2023-05-31T03:17:56;102805.63;;;14.72;100.00
72896;BME280;61036;53.224;6.554;2023-05-31T03:20:22;102809.22;;;14.72;100.00
72896;BME280;61036;53.224;6.554;2023-05-31T03:22:47;102807.47;;;14.71;100.00
72896;BME280;61036;53.224;6.554;2023-05-31T03:25:13;102814.34;;;14.77;100.00
72896;BME280;61036;53.224;6.554;2023-05-31T03:27:38;102812.69;;;14.60;100.00
72896;BME280;61036;53.224;6.554;2023-05-31T03:30:04;102812.41;;;14.79;100.00
72896;BME280;61036;53.224;6.554;2023-05-31T03:32:34;102810.50;;;14.81;100.00
72896;BME280;61036;53.224;6.554;2023-05-31T03:35:00;102807.41;;;14.87;100.00
72896;BME280;61036;53.224;6.554;2023-05-31T03:37:26;102808.16;;;15.03;100.00
72896;BME280;61036;53.224;6.554;2023-05-31T03:40:00;102810.88;;;15.03;100.00
72896;BME280;61036;53.224;6.554;2023-05-31T03:42:30;102812.38;;;15.23;100.00
72896;BME280;61036;53.224;6.554;2023-05-31T03:44:57;102808.19;;;15.32;100.00
72896;BME280;61036;53.224;6.554;2023-05-31T03:47:22;102811.31;;;15.26;100.00
72896;BME280;61036;53.224;6.554;2023-05-31T03:49:48;102808.56;;;14.97;100.00
72896;BME280;61036;53.224;6.554;2023-05-31T03:52:14;102802.47;;;15.08;100.00
72896;BME280;61036;53.224;6.554;2023-05-31T03:54:40;102809.75;;;15.07;100.00
72896;BME280;61036;53.224;6.554;2023-05-31T03:57:06;102808.38;;;15.15;100.00
72896;BME280;61036;53.224;6.554;2023-05-31T03:59:34;102808.38;;;15.29;100.00
72896;BME280;61036;53.224;6.554;2023-05-31T04:02:00;102811.19;;;15.27;100.00
72896;BME280;61036;53.224;6.554;2023-05-31T04:04:25;102803.34;;;15.23;100.00
72896;BME280;61036;53.224;6.554;2023-05-31T04:06:52;102809.41;;;15.55;100.00
72896;BME280;61036;53.224;6.554;2023-05-31T04:09:18;102812.66;;;15.47;100.00
72896;BME280;61036;53.224;6.554;2023-05-31T04:11:45;102815.94;;;15.24;100.00
72896;BME280;61036;53.224;6.554;2023-05-31T04:14:11;102821.28;;;15.40;100.00
72896;BME280;61036;53.224;6.554;2023-05-31T04:16:37;102816.31;;;15.61;100.00
72896;BME280;61036;53.224;6.554;2023-05-31T04:19:03;102819.34;;;15.27;100.00
72896;BME280;61036;53.224;6.554;2023-05-31T04:21:29;102815.34;;;15.62;100.00
72896;BME280;61036;53.224;6.554;2023-05-31T04:23:58;102817.69;;;15.53;100.00
72896;BME280;61036;53.224;6.554;2023-05-31T04:26:24;102817.97;;;15.49;100.00
72896;BME280;61036;53.224;6.554;2023-05-31T04:28:51;102822.06;;;15.70;100.00
72896;BME280;61036;53.224;6.554;2023-05-31T04:31:20;102818.91;;;15.91;100.00
72896;BME280;61036;53.224;6.554;2023-05-31T04:33:50;102812.31;;;15.95;100.00
72896;BME280;61036;53.224;6.554;2023-05-31T04:36:20;102810.41;;;15.68;100.00
72896;BME280;61036;53.224;6.554;2023-05-31T04:38:45;102812.84;;;15.59;100.00
72896;BME280;61036;53.224;6.554;2023-05-31T04:41:14;102809.50;;;15.82;100.00
72896;BME280;61036;53.224;6.554;2023-05-31T04:43:42;102810.25;;;15.98;100.00
72896;BME280;61036;53.224;6.554;2023-05-31T04:46:08;102813.56;;;15.89;100.00
72896;BME280;61036;53.224;6.554;2023-05-31T04:48:35;102818.34;;;15.86;100.00
72896;BME280;61036;53.224;6.554;2023-05-31T04:51:02;102812.84;;;16.00;100.00
72896;BME280;61036;53.224;6.554;2023-05-31T04:53:29;102818.94;;;16.58;100.00
72896;BME280;61036;53.224;6.554;2023-05-31T04:55:55;102818.56;;;17.15;100.00
72896;BME280;61036;53.224;6.554;2023-05-31T04:58:21;102815.78;;;17.66;100.00
72896;BME280;61036;53.224;6.554;2023-05-31T05:00:47;102817.28;;;17.83;100.00
72896;BME280;61036;53.224;6.554;2023-05-31T05:03:22;102822.50;;;17.73;100.00
72896;BME280;61036;53.224;6.554;2023-05-31T05:05:50;102813.06;;;18.03;100.00
72896;BME280;61036;53.224;6.554;2023-05-31T05:08:16;102818.06;;;17.59;100.00
72896;BME280;61036;53.224;6.554;2023-05-31T05:10:43;102821.16;;;17.29;100.00
72896;BME280;61036;53.224;6.554;2023-05-31T05:13:09;102815.63;;;17.93;100.00
72896;BME280;61036;53.224;6.554;2023-05-31T05:15:37;102814.03;;;18.26;100.00
72896;BME280;61036;53.224;6.554;2023-05-31T05:18:03;102812.59;;;18.68;100.00
72896;BME280;61036;53.224;6.554;2023-05-31T05:20:29;102818.44;;;18.16;100.00
72896;BME280;61036;53.224;6.554;2023-05-31T05:22:54;102825.28;;;19.50;100.00
72896;BME280;61036;53.224;6.554;2023-05-31T05:25:20;102822.22;;;20.94;100.00
72896;BME280;61036;53.224;6.554;2023-05-31T05:27:48;102830.31;;;20.43;100.00
72896;BME280;61036;53.224;6.554;2023-05-31T05:30:14;102818.28;;;19.34;100.00
72896;BME280;61036;53.224;6.554;2023-05-31T05:32:40;102818.25;;;19.01;100.00
72896;BME280;61036;53.224;6.554;2023-05-31T05:35:05;102826.75;;;19.42;100.00
72896;BME280;61036;53.224;6.554;2023-05-31T05:37:31;102819.28;;;19.78;100.00
72896;BME280;61036;53.224;6.554;2023-05-31T05:39:57;102825.81;;;18.75;100.00
72896;BME280;61036;53.224;6.554;2023-05-31T05:42:24;102820.94;;;18.43;100.00
72896;BME280;61036;53.224;6.554;2023-05-31T05:44:51;102823.88;;;18.64;100.00
72896;BME280;61036;53.224;6.554;2023-05-31T05:47:17;102815.66;;;18.99;100.00
72896;BME280;61036;53.224;6.554;2023-05-31T05:49:43;102814.75;;;18.52;100.00
72896;BME280;61036;53.224;6.554;2023-05-31T05:52:08;102812.41;;;18.59;100.00
72896;BME280;61036;53.224;6.554;2023-05-31T05:54:34;102817.78;;;19.07;100.00
72896;BME280;61036;53.224;6.554;2023-05-31T05:56:59;102813.41;;;18.82;100.00
72896;BME280;61036;53.224;6.554;2023-05-31T05:59:28;102810.69;;;18.93;100.00
72896;BME280;61036;53.224;6.554;2023-05-31T06:02:07;102809.97;;;19.02;100.00
72896;BME280;61036;53.224;6.554;2023-05-31T06:04:33;102802.88;;;19.00;100.00
72896;BME280;61036;53.224;6.554;2023-05-31T06:06:59;102808.06;;;19.93;100.00
72896;BME280;61036;53.224;6.554;2023-05-31T06:09:25;102813.97;;;20.09;100.00
72896;BME280;61036;53.224;6.554;2023-05-31T06:11:51;102804.34;;;19.49;100.00
72896;BME280;61036;53.224;6.554;2023-05-31T06:14:17;102815.06;;;19.63;100.00
72896;BME280;61036;53.224;6.554;2023-05-31T06:16:47;102803.75;;;19.23;100.00
72896;BME280;61036;53.224;6.554;2023-05-31T06:19:13;102808.09;;;19.36;100.00
72896;BME280;61036;53.224;6.554;2023-05-31T06:21:39;102805.97;;;19.85;100.00
72896;BME280;61036;53.224;6.554;2023-05-31T06:24:05;102803.59;;;19.58;100.00
72896;BME280;61036;53.224;6.554;2023-05-31T06:26:31;102806.63;;;20.09;100.00
72896;BME280;61036;53.224;6.554;2023-05-31T06:28:58;102805.66;;;20.10;100.00
72896;BME280;61036;53.224;6.554;2023-05-31T06:31:44;102803.78;;;19.68;100.00
72896;BME280;61036;53.224;6.554;2023-05-31T06:34:09;102801.72;;;19.58;100.00
72896;BME280;61036;53.224;6.554;2023-05-31T06:36:35;102806.53;;;20.00;100.00
72896;BME280;61036;53.224;6.554;2023-05-31T06:39:01;102806.25;;;20.14;100.00
72896;BME280;61036;53.224;6.554;2023-05-31T06:41:28;102816.53;;;19.90;100.00
72896;BME280;61036;53.224;6.554;2023-05-31T06:43:55;102809.38;;;20.42;100.00
72896;BME280;61036;53.224;6.554;2023-05-31T06:46:40;102819.00;;;20.89;100.00
72896;BME280;61036;53.224;6.554;2023-05-31T06:49:41;102817.59;;;20.42;100.00
72896;BME280;61036;53.224;6.554;2023-05-31T06:52:19;102817.63;;;20.30;100.00
72896;BME280;61036;53.224;6.554;2023-05-31T06:55:13;102817.44;;;20.75;100.00
72896;BME280;61036;53.224;6.554;2023-05-31T06:57:39;102809.13;;;20.45;100.00
72896;BME280;61036;53.224;6.554;2023-05-31T07:00:05;102812.78;;;21.18;100.00
72896;BME280;61036;53.224;6.554;2023-05-31T07:02:32;102806.81;;;20.29;100.00
72896;BME280;61036;53.224;6.554;2023-05-31T07:04:59;102813.81;;;21.38;100.00
72896;BME280;61036;53.224;6.554;2023-05-31T07:07:25;102810.06;;;21.18;100.00
72896;BME280;61036;53.224;6.554;2023-05-31T07:09:51;102814.72;;;21.48;100.00
72896;BME280;61036;53.224;6.554;2023-05-31T07:12:17;102810.13;;;21.28;100.00
72896;BME280;61036;53.224;6.554;2023-05-31T07:14:42;102809.25;;;21.48;100.00
72896;BME280;61036;53.224;6.554;2023-05-31T07:17:08;102808.56;;;21.65;100.00
72896;BME280;61036;53.224;6.554;2023-05-31T07:19:44;102801.41;;;22.03;100.00
72896;BME280;61036;53.224;6.554;2023-05-31T07:22:10;102802.97;;;21.86;100.00
72896;BME280;61036;53.224;6.554;2023-05-31T07:24:35;102806.81;;;21.55;100.00
72896;BME280;61036;53.224;6.554;2023-05-31T07:27:00;102800.94;;;21.79;100.00
72896;BME280;61036;53.224;6.554;2023-05-31T07:29:26;102803.69;;;21.79;100.00
72896;BME280;61036;53.224;6.554;2023-05-31T07:31:51;102805.75;;;22.15;100.00
72896;BME280;61036;53.224;6.554;2023-05-31T07:34:17;102801.16;;;21.56;100.00
72896;BME280;61036;53.224;6.554;2023-05-31T07:36:42;102803.97;;;21.76;100.00
72896;BME280;61036;53.224;6.554;2023-05-31T07:39:08;102798.13;;;22.29;100.00
72896;BME280;61036;53.224;6.554;2023-05-31T07:41:36;102796.97;;;22.31;100.00
72896;BME280;61036;53.224;6.554;2023-05-31T07:44:02;102793.28;;;21.92;100.00
72896;BME280;61036;53.224;6.554;2023-05-31T07:46:28;102790.75;;;22.39;100.00
72896;BME280;61036;53.224;6.554;2023-05-31T07:48:54;102789.28;;;22.15;100.00
72896;BME280;61036;53.224;6.554;2023-05-31T07:51:19;102794.06;;;22.62;100.00
72896;BME280;61036;53.224;6.554;2023-05-31T07:53:45;102794.66;;;22.17;100.00
72896;BME280;61036;53.224;6.554;2023-05-31T07:56:12;102790.16;;;22.65;100.00
72896;BME280;61036;53.224;6.554;2023-05-31T07:58:38;102791.88;;;22.56;100.00
72896;BME280;61036;53.224;6.554;2023-05-31T08:01:04;102784.34;;;22.09;100.00
72896;BME280;61036;53.224;6.554;2023-05-31T08:03:30;102791.97;;;21.77;100.00
72896;BME280;61036;53.224;6.554;2023-05-31T08:05:56;102785.41;;;22.57;100.00
72896;BME280;61036;53.224;6.554;2023-05-31T08:08:23;102785.69;;;23.20;100.00
72896;BME280;61036;53.224;6.554;2023-05-31T08:10:49;102783.38;;;22.40;100.00
72896;BME280;61036;53.224;6.554;2023-05-31T08:13:14;102780.94;;;22.27;100.00
72896;BME280;61036;53.224;6.554;2023-05-31T08:15:40;102780.84;;;22.85;100.00
72896;BME280;61036;53.224;6.554;2023-05-31T08:18:05;102787.84;;;22.11;100.00
72896;BME280;61036;53.224;6.554;2023-05-31T08:20:31;102781.13;;;23.66;100.00
72896;BME280;61036;53.224;6.554;2023-05-31T08:22:57;102777.91;;;25.04;97.07
72896;BME280;61036;53.224;6.554;2023-05-31T08:25:22;102778.91;;;26.31;90.62
72896;BME280;61036;53.224;6.554;2023-05-31T08:27:49;102780.66;;;26.48;87.83
72896;BME280;61036;53.224;6.554;2023-05-31T08:30:15;102779.25;;;25.18;90.51
72896;BME280;61036;53.224;6.554;2023-05-31T08:32:41;102779.09;;;24.76;96.78
72896;BME280;61036;53.224;6.554;2023-05-31T08:35:07;102782.16;;;25.93;91.37
72896;BME280;61036;53.224;6.554;2023-05-31T08:37:37;102786.38;;;25.29;88.74
72896;BME280;61036;53.224;6.554;2023-05-31T08:40:04;102777.81;;;27.05;82.95
72896;BME280;61036;53.224;6.554;2023-05-31T08:42:45;102781.47;;;26.98;84.50
72896;BME280;61036;53.224;6.554;2023-05-31T08:45:12;102780.47;;;26.74;88.58
72896;BME280;61036;53.224;6.554;2023-05-31T08:47:43;102784.50;;;25.12;95.17
72896;BME280;61036;53.224;6.554;2023-05-31T08:50:10;102786.47;;;24.67;98.05
72896;BME280;61036;53.224;6.554;2023-05-31T08:52:36;102777.03;;;26.72;89.97
72896;BME280;61036;53.224;6.554;2023-05-31T08:55:04;102774.09;;;26.33;87.54
72896;BME280;61036;53.224;6.554;2023-05-31T08:57:30;102778.19;;;26.94;83.87
72896;BME280;61036;53.224;6.554;2023-05-31T08:59:56;102770.56;;;27.91;85.75
72896;BME280;61036;53.224;6.554;2023-05-31T09:02:22;102778.91;;;26.88;86.85
72896;BME280;61036;53.224;6.554;2023-05-31T09:04:50;102767.31;;;26.19;90.37
72896;BME280;61036;53.224;6.554;2023-05-31T09:07:16;102780.88;;;24.41;95.35
72896;BME280;61036;53.224;6.554;2023-05-31T09:09:41;102780.16;;;23.85;100.00
72896;BME280;61036;53.224;6.554;2023-05-31T09:12:07;102779.84;;;23.33;100.00
72896;BME280;61036;53.224;6.554;2023-05-31T09:14:33;102787.03;;;23.07;100.00
72896;BME280;61036;53.224;6.554;2023-05-31T09:16:59;102789.66;;;23.08;100.00
72896;BME280;61036;53.224;6.554;2023-05-31T09:19:25;102778.00;;;23.79;100.00
72896;BME280;61036;53.224;6.554;2023-05-31T09:21:51;102784.69;;;24.22;100.00
72896;BME280;61036;53.224;6.554;2023-05-31T09:24:17;102787.13;;;22.48;100.00
72896;BME280;61036;53.224;6.554;2023-05-31T09:26:49;102781.28;;;23.92;100.00
72896;BME280;61036;53.224;6.554;2023-05-31T09:29:15;102781.66;;;24.15;100.00
72896;BME280;61036;53.224;6.554;2023-05-31T09:31:43;102776.81;;;24.45;98.78
72896;BME280;61036;53.224;6.554;2023-05-31T09:34:23;102777.25;;;23.87;100.00
72896;BME280;61036;53.224;6.554;2023-05-31T09:36:50;102780.03;;;23.22;100.00
72896;BME280;61036;53.224;6.554;2023-05-31T09:39:16;102781.84;;;24.32;98.02
72896;BME280;61036;53.224;6.554;2023-05-31T09:41:42;102776.88;;;24.35;95.85
72896;BME280;61036;53.224;6.554;2023-05-31T09:44:08;102780.16;;;24.03;95.72
72896;BME280;61036;53.224;6.554;2023-05-31T09:46:34;102776.59;;;23.75;98.69
72896;BME280;61036;53.224;6.554;2023-05-31T09:49:04;102785.84;;;24.73;97.51
72896;BME280;61036;53.224;6.554;2023-05-31T09:51:32;102777.28;;;24.05;96.34
72896;BME280;61036;53.224;6.554;2023-05-31T09:53:59;102785.38;;;24.24;94.41
72896;BME280;61036;53.224;6.554;2023-05-31T09:56:27;102780.25;;;24.11;96.52
72896;BME280;61036;53.224;6.554;2023-05-31T09:58:56;102780.88;;;24.05;95.44
72896;BME280;61036;53.224;6.554;2023-05-31T10:01:22;102773.84;;;24.91;93.57
72896;BME280;61036;53.224;6.554;2023-05-31T10:03:51;102776.81;;;25.15;94.36
72896;BME280;61036;53.224;6.554;2023-05-31T10:06:19;102767.72;;;23.81;92.28
72896;BME280;61036;53.224;6.554;2023-05-31T10:08:45;102780.41;;;24.28;97.83
72896;BME280;61036;53.224;6.554;2023-05-31T10:11:15;102774.19;;;23.62;99.11
72896;BME280;61036;53.224;6.554;2023-05-31T10:13:42;102776.34;;;22.94;100.00
72896;BME280;61036;53.224;6.554;2023-05-31T10:16:10;102766.28;;;23.49;99.98
72896;BME280;61036;53.224;6.554;2023-05-31T10:18:45;102769.94;;;22.27;100.00
72896;BME280;61036;53.224;6.554;2023-05-31T10:21:19;102769.53;;;22.98;100.00
72896;BME280;61036;53.224;6.554;2023-05-31T10:26:41;102765.16;;;23.42;99.41
72896;BME280;61036;53.224;6.554;2023-05-31T10:29:22;102763.38;;;23.23;100.00
72896;BME280;61036;53.224;6.554;2023-05-31T10:31:50;102765.06;;;23.62;100.00
72896;BME280;61036;53.224;6.554;2023-05-31T10:36:45;102763.59;;;22.93;100.00
72896;BME280;61036;53.224;6.554;2023-05-31T10:39:58;102757.06;;;23.41;99.98
72896;BME280;61036;53.224;6.554;2023-05-31T10:45:43;102750.09;;;23.64;100.00
72896;BME280;61036;53.224;6.554;2023-05-31T10:50:57;102749.06;;;23.47;100.00
72896;BME280;61036;53.224;6.554;2023-05-31T10:53:34;102745.19;;;23.58;100.00
72896;BME280;61036;53.224;6.554;2023-05-31T10:56:05;102740.97;;;23.64;100.00
72896;BME280;61036;53.224;6.554;2023-05-31T11:01:07;102731.25;;;23.42;96.52
72896;BME280;61036;53.224;6.554;2023-05-31T11:03:34;102739.88;;;22.82;100.00
72896;BME280;61036;53.224;6.554;2023-05-31T11:06:06;102738.50;;;23.70;99.38
72896;BME280;61036;53.224;6.554;2023-05-31T11:08:34;102731.75;;;22.90;100.00
72896;BME280;61036;53.224;6.554;2023-05-31T11:11:26;102729.94;;;23.64;100.00
72896;BME280;61036;53.224;6.554;2023-05-31T11:16:21;102729.56;;;23.03;99.54
72896;BME280;61036;53.224;6.554;2023-05-31T11:18:46;102732.84;;;23.44;97.59
72896;BME280;61036;53.224;6.554;2023-05-31T11:27:23;102719.22;;;23.43;98.56
72896;BME280;61036;53.224;6.554;2023-05-31T11:32:21;102719.28;;;24.76;95.57
72896;BME280;61036;53.224;6.554;2023-05-31T11:34:58;102712.38;;;23.92;96.73
72896;BME280;61036;53.224;6.554;2023-05-31T11:39:54;102712.47;;;23.55;94.01
72896;BME280;61036;53.224;6.554;2023-05-31T11:42:21;102708.81;;;24.18;94.29
72896;BME280;61036;53.224;6.554;2023-05-31T11:44:49;102711.47;;;24.28;93.24
72896;BME280;61036;53.224;6.554;2023-05-31T11:47:27;102713.38;;;24.45;96.26
72896;BME280;61036;53.224;6.554;2023-05-31T11:49:56;102702.69;;;23.88;93.21
72896;BME280;61036;53.224;6.554;2023-05-31T11:52:22;102709.22;;;23.69;96.30
72896;BME280;61036;53.224;6.554;2023-05-31T11:54:48;102706.31;;;23.71;94.65
72896;BME280;61036;53.224;6.554;2023-05-31T11:57:15;102706.13;;;23.27;98.23
72896;BME280;61036;53.224;6.554;2023-05-31T11:59:45;102703.41;;;23.72;93.44
72896;BME280;61036;53.224;6.554;2023-05-31T12:02:11;102703.81;;;22.85;94.81
72896;BME280;61036;53.224;6.554;2023-05-31T12:04:38;102698.28;;;23.04;96.04
72896;BME280;61036;53.224;6.554;2023-05-31T12:07:07;102696.84;;;23.28;96.06
72896;BME280;61036;53.224;6.554;2023-05-31T12:09:33;102703.69;;;22.87;97.00
72896;BME280;61036;53.224;6.554;2023-05-31T12:12:00;102701.22;;;23.66;93.39
72896;BME280;61036;53.224;6.554;2023-05-31T12:14:29;102692.94;;;23.48;95.87
72896;BME280;61036;53.224;6.554;2023-05-31T12:16:55;102689.41;;;23.11;96.07
72896;BME280;61036;53.224;6.554;2023-05-31T12:19:21;102688.38;;;23.39;94.84
72896;BME280;61036;53.224;6.554;2023-05-31T12:21:47;102687.97;;;23.80;94.54
72896;BME280;61036;53.224;6.554;2023-05-31T12:24:14;102693.56;;;24.06;93.34
72896;BME280;61036;53.224;6.554;2023-05-31T12:26:45;102686.84;;;24.08;93.74
72896;BME280;61036;53.224;6.554;2023-05-31T12:29:11;102685.44;;;23.68;96.79
72896;BME280;61036;53.224;6.554;2023-05-31T12:31:38;102683.53;;;23.69;95.33
72896;BME280;61036;53.224;6.554;2023-05-31T12:39:22;102684.69;;;22.93;97.42
72896;BME280;61036;53.224;6.554;2023-05-31T12:41:50;102679.31;;;23.75;93.29
72896;BME280;61036;53.224;6.554;2023-05-31T12:44:22;102670.75;;;23.78;94.81
72896;BME280;61036;53.224;6.554;2023-05-31T12:46:50;102676.41;;;23.76;94.95
72896;BME280;61036;53.224;6.554;2023-05-31T12:49:24;102678.34;;;23.66;95.12
72896;BME280;61036;53.224;6.554;2023-05-31T12:54:27;102669.19;;;23.02;95.94
72896;BME280;61036;53.224;6.554;2023-05-31T12:56:55;102671.41;;;23.62;95.52
72896;BME280;61036;53.224;6.554;2023-05-31T12:59:21;102673.56;;;22.85;100.00
72896;BME280;61036;53.224;6.554;2023-05-31T13:01:46;102656.72;;;23.25;96.99
72896;BME280;61036;53.224;6.554;2023-05-31T13:04:12;102666.09;;;23.96;94.30
72896;BME280;61036;53.224;6.554;2023-05-31T13:06:39;102654.66;;;22.72;99.60
72896;BME280;61036;53.224;6.554;2023-05-31T13:09:05;102660.41;;;22.32;100.00
72896;BME280;61036;53.224;6.554;2023-05-31T13:11:39;102662.28;;;24.15;96.67
72896;BME280;61036;53.224;6.554;2023-05-31T13:14:06;102652.75;;;24.09;96.72
72896;BME280;61036;53.224;6.554;2023-05-31T13:16:34;102664.97;;;23.53;100.00
72896;BME280;61036;53.224;6.554;2023-05-31T13:19:01;102662.44;;;23.14;98.94
72896;BME280;61036;53.224;6.554;2023-05-31T13:21:29;102660.19;;;22.63;98.44
72896;BME280;61036;53.224;6.554;2023-05-31T13:23:55;102663.47;;;22.09;99.37
72896;BME280;61036;53.224;6.554;2023-05-31T13:26:23;102660.13;;;22.25;100.00